Time;durP1;ratioP1;P1;durP2;ratioP2;P2;SDS_P1;SDS_P2;PMS_P1;PMS_P2;Temp;Humidity;BMP_temperature;BMP_pressure;BME280_temperature;BME280_humidity;BME280_pressure;Samples;Min_cycle;Max_cycle;Signal;HPM_P1;HPM_P2
2024/02/18 00:10:12;;;;;;;4.30;3.00;;;;;;;6.31;73.52;102017.80;682098;1264;139085;-79
2024/02/18 00:25:16;;;;;;;6.00;3.80;;;;;;;5.93;74.13;102028.19;681739;1262;139540;-79
2024/02/18 00:40:19;;;;;;;8.30;4.30;;;;;;;5.48;74.07;102041.25;681955;1264;139481;-79
2024/02/18 00:55:22;;;;;;;8.70;4.00;;;;;;;5.12;75.05;102053.52;681927;1261;139034;-80
2024/02/18 01:10:27;;;;;;;18.00;7.20;;;;;;;4.87;75.10;102051.13;681777;1265;139440;-80
2024/02/18 01:25:31;;;;;;;15.90;8.20;;;;;;;4.15;76.13;102063.63;681654;1266;139470;-79
2024/02/18 01:40:34;;;;;;;25.80;10.30;;;;;;;3.77;75.37;102080.73;681968;1261;140670;-79
2024/02/18 01:55:39;;;;;;;30.40;11.30;;;;;;;3.35;76.40;102079.03;681904;1263;140127;-80
2024/02/18 02:10:43;;;;;;;16.10;7.00;;;;;;;2.76;78.35;102081.89;681791;1265;139750;-80
2024/02/18 02:25:47;;;;;;;13.70;7.20;;;;;;;2.32;80.40;102089.75;681719;1261;138376;-79
2024/02/18 02:40:51;;;;;;;11.60;6.10;;;;;;;2.29;80.64;102073.58;681899;1262;141367;-79
2024/02/18 02:55:54;;;;;;;16.90;8.40;;;;;;;2.33;80.99;102084.55;681759;1265;139504;-79
2024/02/18 03:10:58;;;;;;;12.40;5.60;;;;;;;2.42;80.83;102101.09;681754;1264;139564;-78
2024/02/18 03:26:02;;;;;;;10.20;4.90;;;;;;;2.45;80.76;102107.38;681817;1265;139618;-79
2024/02/18 03:41:07;;;;;;;14.90;7.80;;;;;;;2.59;80.98;102115.68;681791;1264;139728;-79
2024/02/18 03:56:10;;;;;;;217.00;44.70;;;;;;;2.50;80.11;102116.59;681782;1265;140012;-79
2024/02/18 04:11:16;;;;;;;27.80;9.60;;;;;;;2.34;80.76;102116.11;681856;1263;139114;-79
2024/02/18 04:26:19;;;;;;;65.70;21.10;;;;;;;2.34;80.27;102121.14;681738;1267;141239;-78
2024/02/18 04:41:23;;;;;;;11.70;6.60;;;;;;;2.25;80.01;102116.34;681960;1264;139883;-78
2024/02/18 04:56:26;;;;;;;11.90;6.30;;;;;;;2.07;80.17;102119.84;681799;1264;139900;-78
2024/02/18 05:11:29;;;;;;;12.10;5.90;;;;;;;2.03;80.29;102126.84;681835;1263;141219;-78
2024/02/18 05:26:33;;;;;;;6.70;4.10;;;;;;;1.94;80.11;102143.46;681817;1267;140363;-78
2024/02/18 05:41:37;;;;;;;18.00;9.20;;;;;;;1.87;80.14;102153.10;681932;1265;140085;-77
2024/02/18 05:56:40;;;;;;;14.90;9.40;;;;;;;1.88;80.28;102168.94;681701;1265;140043;-79
2024/02/18 06:11:44;;;;;;;22.40;11.60;;;;;;;1.81;80.38;102182.05;681788;1263;139652;-78
2024/02/18 06:26:48;;;;;;;27.40;12.60;;;;;;;1.95;81.10;102179.50;681777;1264;140857;-78
2024/02/18 06:41:53;;;;;;;19.40;9.60;;;;;;;2.21;81.37;102182.90;681980;1266;140669;-78
2024/02/18 06:56:57;;;;;;;;;;;;;;;2.46;81.47;102190.10;681975;1260;139708;-77
2024/02/18 07:12:01;;;;;;;62.60;27.80;;;;;;;2.78;82.18;102190.88;682082;1264;125850;-77
2024/02/18 07:27:04;;;;;;;45.90;23.70;;;;;;;3.09;83.44;102195.29;682376;1265;140981;-78
2024/02/18 07:42:08;;;;;;;35.30;16.60;;;;;;;3.62;84.38;102188.14;682292;1263;139815;-78
2024/02/18 07:57:12;;;;;;;27.80;14.10;;;;;;;4.51;85.83;102190.65;682268;1265;138627;-79
2024/02/18 08:12:15;;;;;;;20.80;10.00;;;;;;;8.13;89.20;102193.65;682078;1266;140582;-78
2024/02/18 08:27:18;;;;;;;17.90;10.70;;;;;;;11.41;80.59;102194.45;682299;1263;139338;-79
2024/02/18 08:42:23;;;;;;;29.80;16.70;;;;;;;12.81;74.65;102190.77;682246;1264;140315;-79
2024/02/18 08:57:27;;;;;;;29.00;12.00;;;;;;;13.11;69.57;102194.17;682242;1264;139177;-80
2024/02/18 09:12:31;;;;;;;108.80;90.70;;;;;;;14.43;66.00;102189.52;682061;1265;139861;-79
2024/02/18 09:27:35;;;;;;;11.40;6.30;;;;;;;14.90;60.94;102184.88;682057;1264;138552;-79
2024/02/18 09:42:42;;;;;;;12.00;9.00;;;;;;;13.62;60.47;102175.52;681683;1265;138979;-81
2024/02/18 09:57:46;;;;;;;6.80;6.20;;;;;;;14.50;60.01;102165.10;681786;1265;139720;-78
2024/02/18 10:12:50;;;;;;;5.30;4.20;;;;;;;14.03;58.62;102149.90;681802;1264;139549;-80
2024/02/18 10:27:57;;;;;;;12.00;8.70;;;;;;;14.76;55.54;102132.29;681782;1266;141248;-79
2024/02/18 10:43:11;;;;;;;11.00;10.00;;;;;;;12.27;56.92;102123.98;681641;1266;139260;-79
2024/02/18 10:58:37;;;;;;;20.00;14.50;;;;;;;11.10;58.72;102113.03;681885;1260;138464;-79
2024/02/18 11:13:41;;;;;;;8.30;4.20;;;;;;;10.49;59.46;102109.16;681806;1261;139279;-79
2024/02/18 11:28:46;;;;;;;44.00;23.10;;;;;;;10.40;60.34;102085.55;681795;1260;161874;-79
2024/02/18 11:43:56;;;;;;;6.10;4.10;;;;;;;10.46;61.36;102062.80;681506;1264;138349;-79
2024/02/18 11:59:02;;;;;;;7.10;4.00;;;;;;;10.28;60.72;102048.81;681748;1264;138563;-81
2024/02/18 12:14:06;;;;;;;5.20;3.30;;;;;;;10.53;61.58;102034.59;681876;1266;138326;-80
2024/02/18 12:29:09;;;;;;;5.50;3.10;;;;;;;11.14;60.75;102023.88;681955;1261;137688;-80
2024/02/18 12:44:14;;;;;;;4.30;2.30;;;;;;;10.32;56.82;101998.52;681622;1262;137833;-79
2024/02/18 12:59:38;;;;;;;5.80;2.90;;;;;;;10.13;56.83;101991.82;681827;1260;138387;-81
2024/02/18 13:14:43;;;;;;;6.90;3.80;;;;;;;9.68;57.91;101968.69;681737;1264;137808;-80
2024/02/18 13:29:46;;;;;;;6.10;3.00;;;;;;;8.67;59.37;101958.73;681869;1266;139187;-80
2024/02/18 13:44:51;;;;;;;16.60;6.40;;;;;;;8.50;58.96;101945.30;681668;1264;137705;-81
2024/02/18 13:59:56;;;;;;;6.70;3.80;;;;;;;8.49;58.88;101926.35;681608;1266;139149;-81
2024/02/18 14:14:59;;;;;;;48.90;34.60;;;;;;;8.44;58.38;101905.67;681769;1267;137514;-81
2024/02/18 14:30:04;;;;;;;6.50;4.10;;;;;;;8.41;58.30;101892.42;681636;1264;138842;-81
2024/02/18 14:45:15;;;;;;;6.10;3.90;;;;;;;8.46;58.35;101882.08;681678;1265;138278;-78
2024/02/18 15:00:19;;;;;;;7.00;4.60;;;;;;;8.17;58.82;101865.27;681707;1266;138270;-79
2024/02/18 15:15:22;;;;;;;20.50;10.70;;;;;;;8.09;60.32;101863.92;681849;1265;138607;-80
2024/02/18 15:30:27;;;;;;;26.30;12.60;;;;;;;7.52;61.15;101843.86;681677;1265;139134;-80
2024/02/18 15:45:34;;;;;;;;;;;;;;;6.82;62.52;101820.83;681737;1261;141464;-79
2024/02/18 16:00:40;;;;;;;170.70;46.40;;;;;;;6.20;64.52;101791.02;681511;1266;127210;-80
2024/02/18 16:15:44;;;;;;;92.50;41.00;;;;;;;5.74;65.77;101780.50;681919;1265;138986;-80
2024/02/18 16:30:50;;;;;;;155.20;65.30;;;;;;;5.23;67.76;101771.38;681809;1263;141154;-79
2024/02/18 16:45:55;;;;;;;49.40;21.50;;;;;;;4.90;69.05;101750.90;681844;1261;139410;-80
2024/02/18 17:00:58;;;;;;;206.40;76.70;;;;;;;4.63;70.45;101730.34;681705;1263;139578;-81
2024/02/18 17:16:03;;;;;;;258.50;78.00;;;;;;;4.43;71.10;101716.54;681885;1264;139060;-79
2024/02/18 17:31:08;;;;;;;294.50;87.20;;;;;;;4.38;70.91;101695.06;681739;1264;139947;-80
2024/02/18 17:46:16;;;;;;;203.30;68.50;;;;;;;4.33;71.23;101682.99;681854;1263;138817;-80
2024/02/18 18:01:20;;;;;;;75.60;29.70;;;;;;;4.20;71.94;101659.63;681886;1269;139038;-79
2024/02/18 18:16:24;;;;;;;35.40;14.50;;;;;;;4.07;72.87;101644.34;681952;1264;141320;-79
2024/02/18 18:31:32;;;;;;;52.10;20.60;;;;;;;4.04;74.01;101632.16;681690;1274;140767;-79
2024/02/18 18:46:38;;;;;;;84.20;30.80;;;;;;;4.04;74.30;101618.17;681883;1268;139568;-79
2024/02/18 19:01:44;;;;;;;92.10;52.50;;;;;;;4.00;74.44;101589.23;681698;1265;140141;-79
2024/02/18 19:16:53;;;;;;;204.90;79.50;;;;;;;4.03;74.80;101569.02;681881;1261;139229;-79
2024/02/18 19:32:09;;;;;;;70.70;25.00;;;;;;;4.10;74.57;101542.75;681630;1265;139319;-79
2024/02/18 19:47:14;;;;;;;88.30;29.40;;;;;;;4.80;72.28;101537.23;681572;1267;141730;-80
2024/02/18 20:02:19;;;;;;;44.90;18.80;;;;;;;4.73;72.02;101523.70;681736;1265;138951;-79
2024/02/18 20:17:23;;;;;;;30.10;13.00;;;;;;;4.94;71.30;101509.23;681838;1264;139906;-79
2024/02/18 20:32:30;;;;;;;54.20;17.90;;;;;;;4.95;71.27;101500.00;681586;1267;138900;-79
2024/02/18 20:47:34;;;;;;;30.80;12.50;;;;;;;4.86;71.36;101493.09;681857;1273;138680;-79
2024/02/18 21:02:40;;;;;;;34.50;14.30;;;;;;;4.81;71.04;101474.27;681781;1262;139732;-79
2024/02/18 21:17:46;;;;;;;25.70;13.00;;;;;;;4.58;71.36;101452.03;681815;1265;139242;-79
2024/02/18 21:32:50;;;;;;;26.20;11.50;;;;;;;4.59;71.05;101429.67;681799;1262;138954;-79
2024/02/18 21:47:54;;;;;;;27.80;12.20;;;;;;;4.43;71.88;101409.56;681983;1266;140122;-79
2024/02/18 22:02:59;;;;;;;23.50;10.50;;;;;;;4.29;71.80;101378.98;681913;1262;140343;-79
2024/02/18 22:18:03;;;;;;;20.20;10.20;;;;;;;4.18;72.11;101353.35;681942;1264;139751;-80
2024/02/18 22:33:07;;;;;;;20.70;9.80;;;;;;;4.14;72.57;101317.66;681936;1265;138670;-79
2024/02/18 22:48:11;;;;;;;25.40;12.00;;;;;;;4.10;73.01;101308.16;681815;1265;139687;-79
2024/02/18 23:03:14;;;;;;;22.00;10.00;;;;;;;4.05;73.19;101295.20;681827;1265;141252;-79
2024/02/18 23:18:17;;;;;;;16.40;9.70;;;;;;;4.05;73.39;101268.56;681664;1265;141623;-79
2024/02/18 23:33:22;;;;;;;18.20;9.70;;;;;;;4.18;73.13;101259.86;681695;1263;168655;-80
2024/02/18 23:48:26;;;;;;;12.50;7.60;;;;;;;4.30;72.89;101233.67;681894;1266;139672;-79
